Time;durP1;ratioP1;P1;durP2;ratioP2;P2;SDS_P1;SDS_P2;PMS_P1;PMS_P2;Temp;Humidity;BMP_temperature;BMP_pressure;BME280_temperature;BME280_humidity;BME280_pressure;Samples;Min_cycle;Max_cycle;Signal;HPM_P1;HPM_P2
2021/06/26 00:01:47;;;;;;;19.75;14.02;;;13.20;99.90;;;;;;6200350;23;20388;-95
2021/06/26 00:05:36;;;;;;;19.05;14.07;;;13.20;99.90;;;;;;6202737;23;20416;-96
2021/06/26 00:14:04;;;;;;;21.00;14.00;;;13.30;99.90;;;;;;6219478;23;20395;-96
2021/06/26 00:17:16;;;;;;;24.08;15.98;;;13.20;99.90;;;;;;6215311;23;20390;-95
2021/06/26 00:28:44;;;;;;;17.47;13.87;;;13.30;99.90;;;;;;6229472;23;20383;-96
2021/06/26 00:31:39;;;;;;;19.75;14.60;;;13.30;99.90;;;;;;6092883;23;20382;-96
2021/06/26 00:34:37;;;;;;;23.45;16.35;;;13.30;99.90;;;;;;6038152;23;20409;-96
2021/06/26 00:37:21;;;;;;;23.80;16.40;;;13.30;99.90;;;;;;6106075;23;20393;-96
2021/06/26 00:40:07;;;;;;;23.33;16.47;;;13.30;99.90;;;;;;6098421;23;20493;-96
2021/06/26 01:15:23;;;;;;;30.40;20.45;;;13.20;99.90;;;;;;6158480;23;20401;-96
2021/06/26 01:19:05;;;;;;;28.15;18.85;;;13.40;99.90;;;;;;6001727;24;20381;-96
2021/06/26 01:22:28;;;;;;;27.50;17.25;;;13.40;99.90;;;;;;5894873;24;20418;-96
2021/06/26 01:30:37;;;;;;;26.65;18.65;;;13.40;99.90;;;;;;6175108;23;20388;31
2021/06/26 01:33:50;;;;;;;28.20;19.02;;;13.40;99.90;;;;;;6147052;23;20404;-96
2021/06/26 01:36:42;;;;;;;27.98;18.20;;;13.40;99.90;;;;;;6130008;23;20393;-96
2021/06/26 01:40:04;;;;;;;28.50;18.40;;;13.40;99.90;;;;;;6121606;23;20398;-95
2021/06/26 01:46:05;;;;;;;27.50;20.40;;;13.40;99.90;;;;;;6197989;23;20424;-96
2021/06/26 01:53:37;;;;;;;27.90;19.40;;;13.40;99.90;;;;;;6118781;23;20381;-94
2021/06/26 01:59:56;;;;;;;26.80;19.63;;;13.30;99.90;;;;;;6201140;23;20396;-96
2021/06/26 02:06:18;;;;;;;26.95;18.88;;;13.40;99.90;;;;;;6195846;23;20381;-94
2021/06/26 02:20:09;;;;;;;30.95;20.77;;;13.30;99.90;;;;;;6180401;22;20466;-95
2021/06/26 02:23:08;;;;;;;34.22;20.83;;;13.30;99.90;;;;;;6159807;23;20402;-94
2021/06/26 02:26:14;;;;;;;30.05;19.55;;;13.30;99.90;;;;;;6109661;23;20370;-96
2021/06/26 02:29:34;;;;;;;24.92;18.80;;;13.30;99.90;;;;;;6108546;23;20394;-96
2021/06/26 02:32:50;;;;;;;24.70;19.27;;;13.30;99.90;;;;;;6071354;23;20850;-96
2021/06/26 02:35:36;;;;;;;24.80;19.25;;;13.40;99.90;;;;;;6036109;23;20429;-96
2021/06/26 02:38:03;;;;;;;23.00;18.33;;;13.40;99.90;;;;;;6101685;23;20481;-96
2021/06/26 02:40:32;;;;;;;22.73;15.20;;;13.50;99.90;;;;;;6052040;23;20394;-96
2021/06/26 02:43:01;;;;;;;19.83;14.77;;;13.60;99.90;;;;;;6097514;23;20394;-96
2021/06/26 02:45:28;;;;;;;25.83;16.45;;;13.50;99.90;;;;;;6096685;23;20958;-96
2021/06/26 02:47:55;;;;;;;19.02;15.40;;;13.50;99.90;;;;;;6073108;23;20570;-96
2021/06/26 02:50:22;;;;;;;20.95;15.85;;;13.40;99.90;;;;;;6097344;23;20451;-96
2021/06/26 02:52:49;;;;;;;16.73;13.83;;;13.30;99.90;;;;;;6077998;23;20401;-96
2021/06/26 02:55:16;;;;;;;16.93;12.57;;;13.40;99.90;;;;;;6050444;23;20513;-96
2021/06/26 02:57:44;;;;;;;19.73;13.27;;;13.20;99.90;;;;;;6156377;23;20698;-96
2021/06/26 03:00:12;;;;;;;18.80;13.45;;;13.00;99.90;;;;;;6157202;23;20716;-96
2021/06/26 03:02:40;;;;;;;21.35;14.48;;;12.90;99.90;;;;;;6131829;23;20470;-96
2021/06/26 03:05:08;;;;;;;17.33;12.93;;;12.70;99.90;;;;;;6156222;23;20415;-96
2021/06/26 03:07:35;;;;;;;20.27;14.52;;;12.50;99.90;;;;;;6156690;23;20466;-96
2021/06/26 03:10:03;;;;;;;18.15;13.75;;;12.60;99.90;;;;;;6156312;23;20401;-96
2021/06/26 03:12:31;;;;;;;22.38;14.23;;;12.50;99.90;;;;;;6157361;23;20395;-96
2021/06/26 03:14:58;;;;;;;28.98;16.67;;;12.40;99.90;;;;;;6156549;23;20462;-96
2021/06/26 03:17:26;;;;;;;30.08;17.08;;;12.20;99.90;;;;;;6156636;23;20461;-96
2021/06/26 03:19:53;;;;;;;28.13;17.88;;;12.10;99.90;;;;;;6155447;23;20482;-96
2021/06/26 03:22:20;;;;;;;24.70;17.40;;;12.00;99.90;;;;;;6133720;23;20387;-96
2021/06/26 03:24:47;;;;;;;30.40;20.73;;;12.00;99.90;;;;;;6137631;23;20395;-96
2021/06/26 03:27:15;;;;;;;29.30;18.48;;;12.10;99.90;;;;;;6132700;23;20474;-96
2021/06/26 03:29:43;;;;;;;44.45;23.73;;;12.10;99.90;;;;;;6131537;23;20391;-96
2021/06/26 03:32:11;;;;;;;36.17;21.67;;;12.00;99.90;;;;;;6132254;23;20407;-96
2021/06/26 03:34:38;;;;;;;47.22;24.58;;;12.00;99.90;;;;;;6130996;23;20798;-96
2021/06/26 03:37:06;;;;;;;27.02;18.55;;;12.00;99.90;;;;;;6130622;23;20471;-96
2021/06/26 03:39:34;;;;;;;28.38;19.83;;;11.90;99.90;;;;;;6129942;23;20470;-96
2021/06/26 03:42:01;;;;;;;123.55;26.08;;;11.90;99.90;;;;;;6131376;23;20911;-96
2021/06/26 03:44:28;;;;;;;51.40;28.40;;;11.90;99.90;;;;;;6131310;23;20954;-96
2021/06/26 03:46:55;;;;;;;68.57;35.10;;;12.00;99.90;;;;;;6129843;23;20395;-96
2021/06/26 03:49:23;;;;;;;105.67;41.80;;;12.10;99.90;;;;;;6130734;23;20391;-96
2021/06/26 03:51:50;;;;;;;70.70;37.03;;;12.20;99.90;;;;;;6130450;23;20401;-96
2021/06/26 03:54:17;;;;;;;226.32;40.47;;;12.40;99.90;;;;;;6130587;23;21018;-96
2021/06/26 03:56:44;;;;;;;310.15;41.60;;;12.60;99.90;;;;;;6130589;23;20470;-96
2021/06/26 03:59:11;;;;;;;1169.43;70.63;;;12.70;99.90;;;;;;6130807;23;20393;-96
2021/06/26 04:01:38;;;;;;;1539.00;78.72;;;12.90;99.90;;;;;;6106564;23;20392;-96
2021/06/26 04:04:05;;;;;;;1192.85;68.70;;;12.80;99.90;;;;;;6129984;23;20478;-96
2021/06/26 04:06:32;;;;;;;1217.60;73.60;;;12.80;99.90;;;;;;6130882;23;20470;-96
2021/06/26 04:08:59;;;;;;;866.28;60.63;;;12.80;99.90;;;;;;6131601;23;20411;-96
2021/06/26 04:11:29;;;;;;;645.25;51.78;;;12.90;99.90;;;;;;6131264;23;20391;-95
2021/06/26 04:13:56;;;;;;;829.63;54.75;;;13.00;99.90;;;;;;6132195;23;20495;-95
2021/06/26 04:16:23;;;;;;;655.30;49.47;;;13.00;99.90;;;;;;6131636;23;20394;-96
2021/06/26 04:18:51;;;;;;;294.55;33.65;;;13.10;99.90;;;;;;6128041;23;20478;-96
2021/06/26 04:21:17;;;;;;;281.35;28.92;;;13.20;99.90;;;;;;6125405;23;20393;-96
2021/06/26 04:23:45;;;;;;;238.63;25.75;;;13.20;99.90;;;;;;6125061;23;20392;-96
2021/06/26 04:26:12;;;;;;;22.10;16.65;;;13.30;99.90;;;;;;6125435;23;20399;-96
2021/06/26 04:28:39;;;;;;;23.63;16.98;;;13.40;99.90;;;;;;6140311;23;20456;-96
2021/06/26 04:31:06;;;;;;;21.77;16.10;;;13.30;99.90;;;;;;6142582;23;20419;-96
2021/06/26 04:33:33;;;;;;;23.50;16.45;;;13.50;99.90;;;;;;6127864;23;20389;-96
2021/06/26 04:36:01;;;;;;;21.27;15.13;;;13.50;99.90;;;;;;6126818;23;20424;-96
2021/06/26 04:38:28;;;;;;;21.23;15.15;;;13.50;99.90;;;;;;6126711;23;20399;-96
2021/06/26 04:40:55;;;;;;;20.50;15.23;;;13.50;99.90;;;;;;6125814;23;20419;-96
2021/06/26 04:43:22;;;;;;;21.35;15.15;;;13.50;99.90;;;;;;6127034;23;20388;-96
2021/06/26 04:45:50;;;;;;;18.77;14.38;;;13.50;99.90;;;;;;6103173;23;20416;-96
2021/06/26 04:48:20;;;;;;;18.30;13.70;;;13.70;99.90;;;;;;6126879;23;20488;-96
2021/06/26 04:50:47;;;;;;;19.02;14.27;;;13.80;99.90;;;;;;6128860;23;20404;-96
2021/06/26 04:53:15;;;;;;;17.37;13.67;;;13.90;99.90;;;;;;6127158;23;20389;-96
2021/06/26 04:55:51;;;;;;;17.80;13.30;;;14.00;99.90;;;;;;6127328;23;20487;-96
2021/06/26 04:58:23;;;;;;;15.00;12.90;;;14.10;99.90;;;;;;6128605;23;20718;-96
2021/06/26 05:00:51;;;;;;;16.23;13.13;;;14.20;99.90;;;;;;6102421;23;20460;-96
2021/06/26 05:03:20;;;;;;;14.02;11.52;;;14.30;99.90;;;;;;6100901;23;20393;-96
2021/06/26 05:05:48;;;;;;;14.80;10.77;;;14.40;99.90;;;;;;6126306;23;20448;-96
2021/06/26 05:08:15;;;;;;;414.50;24.17;;;14.50;99.90;;;;;;6126449;23;20392;-96
2021/06/26 05:10:43;;;;;;;164.77;15.75;;;14.50;99.90;;;;;;6126150;23;20453;-96
2021/06/26 05:13:10;;;;;;;21.60;11.15;;;14.60;99.90;;;;;;6126618;23;20477;-96
2021/06/26 05:15:51;;;;;;;490.30;23.13;;;14.50;99.90;;;;;;6129623;23;20493;-96
2021/06/26 05:18:18;;;;;;;556.93;25.70;;;14.40;99.90;;;;;;6101918;23;20420;-96
2021/06/26 05:20:45;;;;;;;95.03;13.47;;;14.20;99.90;;;;;;6152947;23;20402;-96
2021/06/26 05:23:19;;;;;;;274.23;17.47;;;14.10;99.90;;;;;;6157075;23;20399;-96
2021/06/26 05:25:47;;;;;;;147.88;16.10;;;14.10;99.90;;;;;;6164495;23;20470;-96
2021/06/26 05:28:16;;;;;;;675.87;30.90;;;14.20;99.90;;;;;;6140436;23;20474;-96
2021/06/26 05:31:00;;;;;;;638.83;31.33;;;14.20;99.90;;;;;;6146583;23;20398;-96
2021/06/26 05:33:27;;;;;;;804.47;35.45;;;14.20;99.90;;;;;;6161271;23;20777;-96
2021/06/26 05:35:55;;;;;;;557.08;28.48;;;14.10;99.90;;;;;;6159278;23;20406;-96
2021/06/26 05:38:22;;;;;;;779.35;37.78;;;14.00;99.90;;;;;;6159252;23;20482;-96
2021/06/26 05:40:49;;;;;;;272.33;23.23;;;14.00;99.90;;;;;;6160839;23;20470;-96
2021/06/26 05:43:17;;;;;;;737.80;34.70;;;14.10;99.90;;;;;;6158925;23;20392;-96
2021/06/26 05:45:44;;;;;;;110.60;15.85;;;14.10;99.90;;;;;;6160091;23;20406;-96
2021/06/26 05:48:11;;;;;;;39.58;12.90;;;14.20;99.90;;;;;;6161694;23;20694;-96
2021/06/26 05:50:38;;;;;;;60.20;13.68;;;14.50;99.90;;;;;;6160647;23;20480;-96
2021/06/26 05:53:05;;;;;;;30.83;12.85;;;14.50;99.90;;;;;;6160462;23;20401;-96
2021/06/26 05:55:33;;;;;;;23.85;11.63;;;14.40;99.90;;;;;;6163690;23;20410;-96
2021/06/26 05:58:00;;;;;;;13.32;11.93;;;14.30;99.90;;;;;;6159693;23;20406;-96
2021/06/26 06:00:32;;;;;;;41.45;13.13;;;14.20;99.90;;;;;;6159259;23;20494;-96
2021/06/26 06:03:02;;;;;;;14.68;12.90;;;14.20;99.90;;;;;;6162332;23;20864;-96
2021/06/26 06:05:30;;;;;;;16.92;12.93;;;14.10;99.90;;;;;;6159961;23;20391;-96
2021/06/26 06:07:57;;;;;;;14.45;12.13;;;14.10;99.90;;;;;;6171045;23;20430;-96
2021/06/26 06:10:25;;;;;;;15.02;12.40;;;14.20;99.90;;;;;;6180250;23;20387;-96
2021/06/26 06:22:16;;;;;;;12.48;9.27;;;14.50;99.90;;;;;;6200045;23;20391;-96
2021/06/26 06:24:58;;;;;;;10.25;8.77;;;14.60;99.90;;;;;;6176275;23;20377;-96
2021/06/26 06:27:26;;;;;;;9.45;8.27;;;14.80;99.90;;;;;;6172210;23;20409;-96
2021/06/26 06:29:53;;;;;;;9.63;8.30;;;14.90;99.90;;;;;;6168656;23;20732;-96
2021/06/26 06:32:24;;;;;;;9.65;7.60;;;15.10;99.90;;;;;;6169787;23;20461;-96
2021/06/26 06:42:50;;;;;;;9.40;7.25;;;15.40;99.90;;;;;;6175882;23;21096;-96
2021/06/26 07:08:39;;;;;;;5.70;4.80;;;15.70;99.90;;;;;;6199452;23;20724;-96
2021/06/26 07:11:06;;;;;;;7.60;5.37;;;15.90;99.90;;;;;;6193344;23;20376;-92
2021/06/26 07:16:16;;;;;;;5.47;4.53;;;15.90;99.90;;;;;;6174699;23;20426;-93
2021/06/26 07:18:44;;;;;;;5.95;4.20;;;15.60;99.90;;;;;;6167811;23;20397;-96
2021/06/26 07:21:41;;;;;;;5.20;3.83;;;15.50;99.90;;;;;;6162585;23;20707;-96
2021/06/26 07:24:09;;;;;;;4.68;3.15;;;15.50;99.90;;;;;;6165530;23;20382;-96
2021/06/26 07:26:38;;;;;;;5.55;3.78;;;15.50;99.90;;;;;;6171346;23;20397;-96
2021/06/26 07:29:06;;;;;;;3.38;2.80;;;15.90;99.90;;;;;;6170310;23;20457;-96
2021/06/26 07:31:35;;;;;;;4.75;3.08;;;16.10;99.90;;;;;;6167898;23;20477;-95
2021/06/26 07:34:07;;;;;;;3.08;2.30;;;16.40;99.90;;;;;;6192904;23;20365;-96
2021/06/26 07:36:36;;;;;;;3.67;2.10;;;16.80;99.90;;;;;;6161533;23;20403;-96
2021/06/26 07:39:04;;;;;;;2.50;2.13;;;17.00;99.90;;;;;;6163797;23;20485;-95
2021/06/26 07:41:32;;;;;;;2.90;1.85;;;17.10;99.90;;;;;;6163917;23;20472;-96
2021/06/26 07:44:01;;;;;;;2.85;2.10;;;17.30;99.90;;;;;;6165019;23;20412;-96
2021/06/26 07:46:28;;;;;;;3.87;1.97;;;17.40;99.90;;;;;;6163955;23;20468;-96
2021/06/26 07:48:56;;;;;;;4.97;1.98;;;17.40;99.90;;;;;;6186769;23;20382;-96
2021/06/26 07:51:24;;;;;;;2.80;2.00;;;17.40;99.90;;;;;;6172699;23;20448;-96
2021/06/26 07:53:54;;;;;;;2.58;2.25;;;17.30;99.90;;;;;;6190434;23;20458;-96
2021/06/26 07:56:21;;;;;;;3.85;2.28;;;17.40;99.90;;;;;;6163418;23;20428;-96
2021/06/26 07:58:51;;;;;;;5.63;2.65;;;17.30;99.90;;;;;;6143813;23;20409;-96
2021/06/26 08:01:19;;;;;;;3.50;3.20;;;17.20;99.90;;;;;;6170756;23;20395;-96
2021/06/26 08:03:47;;;;;;;6.17;3.40;;;17.20;99.90;;;;;;6148537;23;20468;-96
2021/06/26 08:06:24;;;;;;;3.47;2.70;;;17.40;99.90;;;;;;6169863;23;20522;-96
2021/06/26 08:08:56;;;;;;;3.92;2.60;;;17.50;99.90;;;;;;6165093;23;20385;-96
2021/06/26 08:11:23;;;;;;;3.55;2.42;;;17.50;99.90;;;;;;6170569;23;20424;-96
2021/06/26 08:13:54;;;;;;;2.30;2.10;;;17.70;99.90;;;;;;6193227;23;20410;-96
2021/06/26 08:16:21;;;;;;;3.08;2.60;;;17.80;99.90;;;;;;6196435;23;20479;-96
2021/06/26 08:18:53;;;;;;;2.85;2.60;;;17.80;99.90;;;;;;6199324;23;20388;-96
2021/06/26 08:21:30;;;;;;;3.45;2.83;;;18.00;99.90;;;;;;6198350;23;20387;-96
2021/06/26 08:23:58;;;;;;;2.80;2.50;;;18.20;99.90;;;;;;6223898;23;20419;-96
2021/06/26 08:26:47;;;;;;;4.15;3.60;;;18.30;99.90;;;;;;6209652;23;20395;-96
2021/06/26 08:29:27;;;;;;;6.72;2.08;;;18.70;99.90;;;;;;6208727;23;20402;-96
2021/06/26 08:31:54;;;;;;;2.70;2.10;;;18.80;99.90;;;;;;6201913;23;20391;-96
2021/06/26 08:34:23;;;;;;;3.03;2.10;;;18.80;99.90;;;;;;6196683;23;20455;-96
2021/06/26 08:36:51;;;;;;;3.35;2.00;;;18.40;99.90;;;;;;6194528;23;20447;-96
2021/06/26 08:39:21;;;;;;;3.38;2.10;;;18.30;99.90;;;;;;6193844;23;20471;-96
2021/06/26 08:41:49;;;;;;;3.17;2.17;;;18.30;99.90;;;;;;6193271;23;20458;-96
2021/06/26 08:44:18;;;;;;;4.68;2.08;;;18.20;99.90;;;;;;6193343;23;20496;-96
2021/06/26 08:46:49;;;;;;;2.45;1.80;;;18.20;99.90;;;;;;6195235;23;20395;-96
2021/06/26 08:49:18;;;;;;;2.47;1.73;;;18.20;99.90;;;;;;6192124;23;20387;-96
2021/06/26 08:51:49;;;;;;;2.15;1.65;;;18.30;99.90;;;;;;6194962;23;20459;-96
2021/06/26 08:54:19;;;;;;;1.90;1.70;;;18.70;99.90;;;;;;6195412;23;20392;-96
2021/06/26 08:56:48;;;;;;;1.80;1.58;;;19.10;99.90;;;;;;6195557;23;20387;-96
2021/06/26 08:59:16;;;;;;;2.13;1.77;;;19.20;99.90;;;;;;6192118;23;20475;-92
2021/06/26 09:01:45;;;;;;;2.50;1.60;;;19.00;99.90;;;;;;6190889;23;20392;-96
2021/06/26 09:04:15;;;;;;;2.70;1.75;;;19.10;99.90;;;;;;6217703;23;20403;-96
2021/06/26 09:06:56;;;;;;;1.90;1.80;;;19.10;99.90;;;;;;6191203;23;20388;-93
2021/06/26 09:09:33;;;;;;;3.50;2.05;;;19.20;99.90;;;;;;6191347;23;20879;-96
2021/06/26 09:12:06;;;;;;;2.08;1.73;;;19.10;99.90;;;;;;6192193;23;20394;-93
2021/06/26 09:14:34;;;;;;;3.42;2.15;;;19.10;99.90;;;;;;6192042;23;20382;-95
2021/06/26 09:17:02;;;;;;;2.47;2.28;;;19.20;99.90;;;;;;6191230;23;20398;-96
2021/06/26 09:19:31;;;;;;;3.47;1.98;;;19.20;99.90;;;;;;6192158;23;20407;-95
2021/06/26 09:22:04;;;;;;;4.88;2.10;;;19.20;99.90;;;;;;6193433;23;20472;-96
2021/06/26 09:24:43;;;;;;;3.65;2.00;;;19.10;99.90;;;;;;6200192;23;20386;-96
2021/06/26 09:27:21;;;;;;;2.72;1.73;;;19.10;99.90;;;;;;6230116;23;20400;-92
2021/06/26 09:29:55;;;;;;;2.05;1.60;;;19.40;99.90;;;;;;6207768;23;20394;-96
2021/06/26 09:32:26;;;;;;;2.50;1.95;;;19.60;99.90;;;;;;6194936;23;20479;-96
2021/06/26 09:35:02;;;;;;;2.92;1.65;;;19.70;99.90;;;;;;6197212;23;20398;-96
2021/06/26 09:37:34;;;;;;;2.50;1.70;;;19.90;99.90;;;;;;6204599;23;20372;-94
2021/06/26 09:40:25;;;;;;;6.35;1.63;;;20.40;99.90;;;;;;6199525;23;20449;-94
2021/06/26 09:42:56;;;;;;;2.05;1.45;;;20.70;99.90;;;;;;6174134;23;20395;-88
2021/06/26 09:45:24;;;;;;;1.48;1.38;;;20.80;99.90;;;;;;6171541;23;20387;-91
2021/06/26 09:47:51;;;;;;;2.50;1.50;;;20.60;99.90;;;;;;6194501;23;20380;-93
2021/06/26 09:50:27;;;;;;;5.45;1.70;;;20.40;99.90;;;;;;6191651;23;20864;-93
2021/06/26 09:52:56;;;;;;;4.18;2.10;;;20.10;99.90;;;;;;6194794;23;20446;-93
2021/06/26 09:55:33;;;;;;;2.47;2.20;;;19.80;99.90;;;;;;6195166;23;20396;-96
2021/06/26 09:58:06;;;;;;;3.10;1.98;;;19.50;99.90;;;;;;6197431;23;20396;-93
2021/06/26 10:00:34;;;;;;;2.22;2.00;;;19.30;99.90;;;;;;6192811;23;20395;-94
2021/06/26 10:03:03;;;;;;;4.50;1.92;;;19.20;99.90;;;;;;6191773;23;20395;-93
2021/06/26 10:05:32;;;;;;;3.88;2.10;;;19.20;99.90;;;;;;6191713;23;20454;-93
2021/06/26 10:08:02;;;;;;;2.85;1.90;;;19.00;99.90;;;;;;6191120;23;20407;-93
2021/06/26 10:10:29;;;;;;;2.20;2.00;;;19.10;99.90;;;;;;6191285;23;20375;-93
2021/06/26 10:12:57;;;;;;;2.88;2.00;;;19.50;99.90;;;;;;6190697;23;20390;-93
2021/06/26 10:15:33;;;;;;;2.83;1.90;;;19.90;99.90;;;;;;6190690;23;20392;-93
2021/06/26 10:18:01;;;;;;;3.88;1.70;;;20.20;99.90;;;;;;6191749;23;20690;-93
2021/06/26 10:20:28;;;;;;;2.63;1.80;;;20.50;99.90;;;;;;6190427;23;20716;-93
2021/06/26 10:23:01;;;;;;;1.93;1.70;;;20.60;99.90;;;;;;6190685;23;20870;-93
2021/06/26 10:25:36;;;;;;;4.15;1.80;;;20.50;99.90;;;;;;6191063;23;20392;-95
2021/06/26 10:28:09;;;;;;;2.47;1.60;;;20.20;99.90;;;;;;6190540;23;20368;-93
2021/06/26 10:30:36;;;;;;;1.73;1.60;;;20.00;99.90;;;;;;6191045;23;20395;-92
2021/06/26 10:33:08;;;;;;;2.17;1.63;;;19.90;99.90;;;;;;6190368;23;20395;-92
2021/06/26 10:35:39;;;;;;;2.35;1.70;;;20.20;99.90;;;;;;6191449;23;20482;-93
2021/06/26 10:38:12;;;;;;;4.00;1.40;;;20.20;99.90;;;;;;6191008;23;20364;-94
2021/06/26 10:40:48;;;;;;;2.67;1.50;;;20.00;99.90;;;;;;6190528;23;20446;-93
2021/06/26 10:43:31;;;;;;;1.67;1.38;;;19.80;99.90;;;;;;6189921;23;20387;-93
2021/06/26 10:46:12;;;;;;;2.53;1.48;;;19.90;99.90;;;;;;6190178;23;20387;-95
2021/06/26 10:48:42;;;;;;;1.80;1.40;;;20.10;99.90;;;;;;6191196;23;20453;-92
2021/06/26 10:51:10;;;;;;;1.88;1.45;;;20.30;99.90;;;;;;6190586;23;20390;-92
2021/06/26 10:53:39;;;;;;;1.67;1.42;;;20.40;99.90;;;;;;6190260;23;20387;-94
2021/06/26 10:56:14;;;;;;;2.08;1.60;;;20.60;99.90;;;;;;6190971;23;20406;-94
2021/06/26 10:58:46;;;;;;;1.67;1.20;;;21.00;99.90;;;;;;6190147;23;20701;-94
2021/06/26 11:01:20;;;;;;;3.08;1.40;;;21.30;99.90;;;;;;6190939;23;20884;-95
2021/06/26 11:03:51;;;;;;;1.40;1.30;;;21.30;99.90;;;;;;6191269;23;20388;-94
2021/06/26 11:06:24;;;;;;;1.25;1.15;;;21.40;99.90;;;;;;6192820;23;20388;-92
2021/06/26 11:09:07;;;;;;;2.40;1.25;;;21.30;99.90;;;;;;6212910;23;20388;-91
2021/06/26 11:11:39;;;;;;;1.80;1.20;;;21.30;99.90;;;;;;6191300;23;20392;-93
2021/06/26 11:14:21;;;;;;;1.50;1.20;;;21.60;99.90;;;;;;6189624;23;20383;-94
2021/06/26 11:16:54;;;;;;;2.30;1.20;;;21.90;99.90;;;;;;6189898;23;20399;-93
2021/06/26 11:19:23;;;;;;;1.30;1.20;;;21.90;99.90;;;;;;6190347;23;20871;-92
2021/06/26 11:21:52;;;;;;;1.67;1.30;;;22.00;99.90;;;;;;6190053;23;20387;-92
2021/06/26 11:24:41;;;;;;;1.40;1.30;;;21.80;99.90;;;;;;6189736;23;20709;-92
2021/06/26 11:27:14;;;;;;;1.70;1.30;;;21.90;99.90;;;;;;6189323;23;20395;-92
2021/06/26 11:29:45;;;;;;;2.03;1.30;;;21.80;99.90;;;;;;6190077;23;20392;-92
2021/06/26 11:32:24;;;;;;;1.10;1.02;;;21.70;99.90;;;;;;6191894;23;20681;-94
2021/06/26 11:35:04;;;;;;;1.33;1.17;;;21.80;99.90;;;;;;6189867;23;20450;-93
2021/06/26 11:37:40;;;;;;;1.33;1.13;;;22.10;99.90;;;;;;6190492;23;20395;-92
2021/06/26 11:40:13;;;;;;;2.47;1.10;;;22.30;99.90;;;;;;6189763;23;20391;-95
2021/06/26 11:42:54;;;;;;;2.30;1.00;;;22.50;99.90;;;;;;6189424;23;20392;-95
2021/06/26 11:45:47;;;;;;;1.80;0.90;;;22.30;99.90;;;;;;6191147;23;20547;-94
2021/06/26 11:48:19;;;;;;;2.88;1.10;;;22.10;99.90;;;;;;6190848;23;20387;-94
2021/06/26 11:50:57;;;;;;;1.30;1.20;;;21.80;99.90;;;;;;6191099;23;20384;-94
2021/06/26 11:53:26;;;;;;;1.40;1.30;;;21.50;99.90;;;;;;6190195;23;20433;-95
2021/06/26 11:56:02;;;;;;;1.80;1.23;;;21.50;99.90;;;;;;6190021;23;20856;-95
2021/06/26 11:58:46;;;;;;;1.27;1.17;;;21.40;99.90;;;;;;6189404;23;20384;-94
2021/06/26 12:01:28;;;;;;;1.87;1.30;;;21.40;99.90;;;;;;6189531;23;20474;-93
2021/06/26 12:03:58;;;;;;;2.63;1.10;;;21.30;99.90;;;;;;6189980;23;20407;-94
2021/06/26 12:06:30;;;;;;;1.50;1.10;;;21.50;99.90;;;;;;6190272;23;20383;-92
2021/06/26 12:08:58;;;;;;;1.38;1.10;;;21.90;99.90;;;;;;6190177;23;20463;-96
2021/06/26 12:11:28;;;;;;;1.10;1.00;;;22.60;99.90;;;;;;6189873;23;20402;-96
2021/06/26 12:13:57;;;;;;;1.30;1.02;;;23.40;99.90;;;;;;6189468;23;20387;-93
2021/06/26 12:16:36;;;;;;;1.67;1.10;;;23.80;99.90;;;;;;6190226;23;20399;-96
2021/06/26 12:19:06;;;;;;;0.98;0.98;;;23.40;99.90;;;;;;6190032;23;20384;-96
2021/06/26 12:21:49;;;;;;;2.95;1.20;;;23.20;99.90;;;;;;6192897;23;20387;-96
2021/06/26 12:24:28;;;;;;;1.00;1.00;;;22.90;99.90;;;;;;6190531;23;20390;-96
2021/06/26 12:27:02;;;;;;;2.47;1.00;;;22.70;99.90;;;;;;6191371;23;20470;-96
2021/06/26 12:29:30;;;;;;;1.50;1.10;;;22.70;99.90;;;;;;6191339;23;20398;-92
2021/06/26 12:31:57;;;;;;;1.95;1.10;;;22.90;99.90;;;;;;6190176;23;20428;-96
2021/06/26 12:34:24;;;;;;;1.55;1.10;;;23.00;99.90;;;;;;6189761;23;20395;-92
2021/06/26 12:36:53;;;;;;;2.00;1.20;;;22.40;99.90;;;;;;6190214;23;20407;-96
2021/06/26 12:39:24;;;;;;;1.40;1.30;;;22.40;99.90;;;;;;6189562;23;20385;-93
2021/06/26 12:41:59;;;;;;;1.50;1.10;;;22.40;99.90;;;;;;6190023;23;20833;-96
2021/06/26 12:44:27;;;;;;;1.60;1.20;;;22.70;99.90;;;;;;6192613;23;20396;-93
2021/06/26 12:46:54;;;;;;;1.35;1.17;;;23.50;99.90;;;;;;6200445;23;20364;-92
2021/06/26 12:49:25;;;;;;;1.88;1.00;;;24.10;99.90;;;;;;6208435;23;20426;-91
2021/06/26 12:51:52;;;;;;;1.10;1.00;;;24.30;99.90;;;;;;6192012;23;20387;-91
2021/06/26 12:54:19;;;;;;;0.95;0.90;;;24.10;99.90;;;;;;6192199;23;20395;-93
2021/06/26 12:56:53;;;;;;;1.13;1.00;;;24.00;99.90;;;;;;6191973;23;20478;-91
2021/06/26 12:59:32;;;;;;;1.20;1.10;;;23.60;99.90;;;;;;6192250;23;20384;-91
2021/06/26 13:02:02;;;;;;;1.10;1.00;;;22.90;99.90;;;;;;6191283;23;20401;-94
2021/06/26 13:04:55;;;;;;;1.15;0.95;;;22.60;99.90;;;;;;6191991;23;20383;-94
2021/06/26 13:07:24;;;;;;;2.00;1.20;;;22.30;99.90;;;;;;6187501;23;20476;-92
2021/06/26 13:10:03;;;;;;;1.17;1.05;;;21.70;99.90;;;;;;6218070;23;20450;-92
2021/06/26 13:12:30;;;;;;;1.60;1.13;;;21.50;99.90;;;;;;6191400;23;20367;-93
2021/06/26 13:15:03;;;;;;;2.35;1.08;;;21.20;99.90;;;;;;6191250;23;20388;-91
2021/06/26 13:17:30;;;;;;;1.85;1.10;;;21.00;99.90;;;;;;6191140;23;20407;-91
2021/06/26 13:19:59;;;;;;;2.15;0.93;;;21.60;99.90;;;;;;6191854;23;20685;-91
2021/06/26 13:22:34;;;;;;;0.85;0.80;;;23.10;99.90;;;;;;6193012;23;20410;-94
2021/06/26 13:25:01;;;;;;;1.33;0.90;;;24.30;99.90;;;;;;6202299;23;20442;-94
2021/06/26 13:27:29;;;;;;;4.28;1.10;;;25.00;99.90;;;;;;6191144;23;20860;-91
2021/06/26 13:29:56;;;;;;;0.93;0.90;;;25.60;99.90;;;;;;6191648;23;20395;-92
2021/06/26 13:32:23;;;;;;;0.80;0.80;;;25.60;99.30;;;;;;6191040;23;20419;-92
2021/06/26 13:34:50;;;;;;;1.00;0.90;;;25.50;98.50;;;;;;6191658;23;20414;-92
2021/06/26 13:37:19;;;;;;;1.23;0.93;;;25.00;98.00;;;;;;6191216;23;20400;-92
2021/06/26 13:39:46;;;;;;;1.27;1.00;;;24.60;99.40;;;;;;6192151;23;20387;-91
2021/06/26 13:42:13;;;;;;;1.90;1.07;;;24.40;99.90;;;;;;6190961;23;20907;-92
2021/06/26 13:44:40;;;;;;;1.58;1.10;;;24.20;99.90;;;;;;6191587;23;20376;-92
2021/06/26 13:47:07;;;;;;;1.52;0.98;;;24.50;99.90;;;;;;6191522;23;20437;-94
2021/06/26 13:49:35;;;;;;;2.67;1.08;;;25.50;98.80;;;;;;6191855;23;20761;-92
2021/06/26 13:52:02;;;;;;;1.20;0.80;;;26.70;95.40;;;;;;6191172;23;20403;-93
2021/06/26 13:54:29;;;;;;;4.00;1.00;;;27.30;96.10;;;;;;6191018;23;20862;-92
2021/06/26 13:56:57;;;;;;;1.58;0.90;;;27.70;91.80;;;;;;6190123;23;20478;-92
2021/06/26 13:59:24;;;;;;;1.27;0.98;;;28.20;92.30;;;;;;6191280;23;20391;-93
2021/06/26 14:01:51;;;;;;;1.08;0.80;;;28.60;90.20;;;;;;6190689;23;20454;-92
2021/06/26 14:04:20;;;;;;;1.83;0.90;;;29.20;90.60;;;;;;6191307;23;20383;-92
2021/06/26 14:06:47;;;;;;;0.93;0.80;;;29.60;89.20;;;;;;6191550;23;20391;-93
2021/06/26 14:09:17;;;;;;;2.42;0.90;;;29.40;81.00;;;;;;6191560;23;20387;-94
2021/06/26 14:11:46;;;;;;;0.82;0.82;;;29.30;79.40;;;;;;6192601;23;20387;-94
2021/06/26 14:14:19;;;;;;;0.95;0.77;;;29.30;87.00;;;;;;6217554;23;20388;-93
2021/06/26 14:16:55;;;;;;;1.45;0.80;;;29.30;77.50;;;;;;6192289;23;20392;-93
2021/06/26 14:19:51;;;;;;;1.65;0.90;;;28.60;80.40;;;;;;6149987;23;20458;-95
2021/06/26 14:22:25;;;;;;;0.95;0.90;;;28.00;83.10;;;;;;6195460;23;20384;-96
2021/06/26 14:24:55;;;;;;;2.50;1.00;;;27.40;80.50;;;;;;6196063;23;20399;-94
2021/06/26 14:27:33;;;;;;;0.82;0.82;;;26.50;86.60;;;;;;6205699;23;20371;-92
2021/06/26 14:30:07;;;;;;;1.48;1.10;;;25.90;85.00;;;;;;6200833;23;20888;-93
2021/06/26 14:32:46;;;;;;;1.60;1.00;;;25.10;89.50;;;;;;6195417;23;20450;-93
2021/06/26 14:35:18;;;;;;;1.15;1.10;;;24.50;92.20;;;;;;6224870;23;20376;-96
2021/06/26 14:38:20;;;;;;;1.50;1.13;;;24.20;92.70;;;;;;6200653;23;20408;-95
2021/06/26 14:40:47;;;;;;;1.95;1.10;;;23.90;92.40;;;;;;6190630;23;20387;-93
2021/06/26 14:43:14;;;;;;;1.27;1.10;;;23.70;97.90;;;;;;6190029;23;20740;-95
2021/06/26 14:45:41;;;;;;;1.70;1.00;;;23.70;99.90;;;;;;6190398;23;20876;-93
2021/06/26 14:48:08;;;;;;;1.30;1.20;;;23.80;99.90;;;;;;6190981;23;20372;-95
2021/06/26 14:50:35;;;;;;;1.00;0.90;;;23.60;99.90;;;;;;6191067;23;20400;-96
2021/06/26 14:53:03;;;;;;;2.00;1.20;;;24.10;99.90;;;;;;6190402;23;20388;-95
2021/06/26 14:55:30;;;;;;;2.58;1.20;;;25.20;98.20;;;;;;6190147;23;20403;-95
2021/06/26 14:57:57;;;;;;;3.17;1.00;;;26.40;94.70;;;;;;6191027;23;20687;-94
2021/06/26 15:00:24;;;;;;;3.78;1.00;;;26.90;92.70;;;;;;6190043;23;20926;-92
2021/06/26 15:02:51;;;;;;;1.05;0.95;;;26.30;95.40;;;;;;6190094;23;20883;-91
2021/06/26 15:05:19;;;;;;;1.73;1.02;;;25.70;93.70;;;;;;6192517;23;20442;-95
2021/06/26 15:07:46;;;;;;;1.60;1.20;;;25.30;97.10;;;;;;6189803;23;20445;-92
2021/06/26 15:10:13;;;;;;;1.50;1.10;;;24.60;97.60;;;;;;6190947;23;20376;-90